Aérodrome :
LOGIN :

S'inscrire | Disclaimer

   EN    FR    IT 

 










Légende :    VFR   VFR Marginal   IFR   IFR Intensif   IFR Très Intensif
Visi : 
Plafond : 
>= 8 km
>= 3000ft
5 à 8 km
1000 à 3000 ft
1500m à 5 km
500 à 1000 ft
800 à 1500m
200 à 500 ft
< 800m
< 200 ft
Symboles :   Orages  Brouillard  Fortes neiges  Fortes précipitations  Vent > 20 kt
SIGMETs :   Divers  Orages  Givrage  Turbulence  Onde Orograph.  Cendres Volcan.






- Altitude de l'aérodrome : 81 ft
- Code IATA : SCS


EGPM - Scatsta

DERNIER METAR :
  • 262250Z AUTO 22014KT 9999 SCT020/// BKN035/// 04/M00 Q0993

METARs EXPIRÉS :
  • 262220Z AUTO 20009KT 9999 FEW033/// 03/01 Q0993
  • 262150Z AUTO 21010KT 9999 NCD 04/01 Q0993
  • 262120Z AUTO 23014KT 9999 FEW031/// 04/02 Q0993
  • 262050Z AUTO 22010KT 9999 FEW031/// 04/01 Q0993
  • 262020Z AUTO 24014KT 9999 FEW024/// BKN037/// 05/01 Q0993

Prévision TAF périmée.



MET'MAP, la Météo Aéronautique d'un coup d'oeil ! - Copyright ORBIFLY Décembre 2007 - Disclaimer

ORBIFLY MET'MAP TEAM :

Programmation & Développement : Alexandra Zaïnal
Sur une idée originale de : Baudouin d'Aumeries
Assistance à la programmation : Marc-Olivier Méhu
Soutien technique & logistique : Manuel Goepfert

Contact : metmap@orbifly.com




SOURCES & CREDITS :

   NOAA